createdAt,value
2017-12-25T00:01:55.858Z,21.25
2017-12-25T00:04:22.113Z,19.90
2017-12-25T00:06:48.364Z,18.40
2017-12-25T00:09:14.628Z,21.15
2017-12-25T00:11:40.874Z,20.27
2017-12-25T00:14:07.874Z,18.30
2017-12-25T00:16:34.180Z,19.85
2017-12-25T00:19:01.203Z,20.90
2017-12-25T00:21:27.469Z,20.80
2017-12-25T00:23:53.702Z,17.52
2017-12-25T00:26:19.956Z,19.37
2017-12-25T00:28:46.235Z,23.90
2017-12-25T00:31:13.309Z,20.08
2017-12-25T00:33:39.565Z,18.10
2017-12-25T00:36:05.834Z,18.23
2017-12-25T00:38:32.095Z,17.75
2017-12-25T00:40:58.456Z,17.85
2017-12-25T00:43:25.485Z,16.98
2017-12-25T00:45:52.488Z,16.40
2017-12-25T00:48:18.751Z,18.87
2017-12-25T00:50:44.994Z,17.58
2017-12-25T00:53:11.229Z,17.10
2017-12-25T00:55:37.468Z,18.12
2017-12-25T00:58:03.738Z,18.77
2017-12-25T01:00:29.982Z,16.05
2017-12-25T01:02:56.250Z,15.82
2017-12-25T01:05:22.492Z,16.15
2017-12-25T01:07:49.826Z,15.52
2017-12-25T01:10:16.108Z,20.25
2017-12-25T01:12:42.376Z,21.92
2017-12-25T01:15:08.634Z,25.88
2017-12-25T01:17:34.875Z,21.40
2017-12-25T01:20:01.157Z,17.87
2017-12-25T01:22:28.153Z,17.35
2017-12-25T01:24:54.433Z,16.80
2017-12-25T01:27:20.681Z,15.63
2017-12-25T01:29:46.949Z,16.65
2017-12-25T01:32:13.180Z,20.42
2017-12-25T01:34:40.189Z,18.48
2017-12-25T01:37:06.422Z,16.62
2017-12-25T01:39:32.691Z,19.25
2017-12-25T01:41:58.933Z,16.12
2017-12-25T01:44:25.167Z,17.17
2017-12-25T01:47:06.605Z,16.90
2017-12-25T01:49:33.584Z,18.20
2017-12-25T01:51:59.886Z,16.80
2017-12-25T01:54:26.179Z,16.65
2017-12-25T01:56:54.319Z,18.90
2017-12-25T01:59:26.327Z,16.90
2017-12-25T02:01:57.380Z,17.60
2017-12-25T02:04:28.608Z,16.33
2017-12-25T02:07:16.576Z,17.33
2017-12-25T02:09:42.802Z,18.95
2017-12-25T02:12:09.837Z,18.62
2017-12-25T02:14:36.085Z,17.55
2017-12-25T02:17:02.391Z,18.35
2017-12-25T02:19:29.380Z,19.40
2017-12-25T02:21:55.632Z,17.25
2017-12-25T02:24:21.884Z,15.60
2017-12-25T02:26:48.852Z,15.02
2017-12-25T02:29:15.122Z,14.30
2017-12-25T02:31:41.371Z,16.27
2017-12-25T02:34:07.641Z,15.38
2017-12-25T02:36:33.867Z,15.68
2017-12-25T02:39:00.152Z,17.30
2017-12-25T02:41:27.204Z,14.68
2017-12-25T02:43:54.210Z,16.62
2017-12-25T02:46:20.455Z,14.52
2017-12-25T02:48:47.465Z,15.15
2017-12-25T02:51:14.458Z,16.55
2017-12-25T02:53:40.726Z,15.60
2017-12-25T02:56:06.961Z,16.00
2017-12-25T02:58:33.202Z,16.12
2017-12-25T03:00:59.462Z,16.65
2017-12-25T03:03:25.713Z,15.32
2017-12-25T03:05:51.988Z,15.82
2017-12-25T03:08:18.243Z,15.20
2017-12-25T03:10:44.486Z,16.10
2017-12-25T03:13:10.742Z,18.42
2017-12-25T03:15:37.340Z,17.58
2017-12-25T03:18:04.346Z,15.23
2017-12-25T03:20:30.606Z,16.40
2017-12-25T03:22:56.857Z,16.25
2017-12-25T03:25:23.119Z,15.02
2017-12-25T03:27:49.390Z,16.60
2017-12-25T03:30:16.385Z,17.55
2017-12-25T03:32:42.658Z,17.37
2017-12-25T03:35:09.674Z,15.80
2017-12-25T03:37:35.954Z,16.73
2017-12-25T03:40:02.232Z,14.25
2017-12-25T03:42:28.534Z,17.02
2017-12-25T03:44:54.802Z,15.85
2017-12-25T03:47:21.050Z,14.60
2017-12-25T03:49:47.314Z,15.52
2017-12-25T03:52:13.537Z,16.95
2017-12-25T03:54:39.776Z,14.50
2017-12-25T03:57:06.084Z,14.00
2017-12-25T03:59:32.330Z,16.10
2017-12-25T04:01:59.361Z,14.80
2017-12-25T04:04:25.615Z,15.38
2017-12-25T04:06:51.860Z,14.27
2017-12-25T04:09:18.116Z,15.20
2017-12-25T04:11:45.119Z,15.30
2017-12-25T04:14:11.372Z,14.13
2017-12-25T04:16:37.653Z,14.80
2017-12-25T04:19:04.664Z,15.98
2017-12-25T04:21:30.911Z,14.87
2017-12-25T04:23:57.172Z,15.30
2017-12-25T04:26:23.421Z,15.48
2017-12-25T04:28:49.666Z,15.02
2017-12-25T04:31:15.922Z,15.35
2017-12-25T04:33:42.908Z,14.45
2017-12-25T04:36:09.200Z,15.68
2017-12-25T04:38:35.474Z,14.40
2017-12-25T04:41:02.076Z,15.15
2017-12-25T04:43:28.326Z,14.82
2017-12-25T04:45:54.565Z,14.35
2017-12-25T04:48:20.850Z,13.23
2017-12-25T04:50:47.801Z,13.80
2017-12-25T04:53:14.791Z,14.07
2017-12-25T04:55:41.043Z,12.95
2017-12-25T04:58:07.283Z,13.35
2017-12-25T05:00:33.545Z,14.25
2017-12-25T05:02:59.790Z,13.50
2017-12-25T05:05:26.022Z,12.85
2017-12-25T05:07:52.297Z,13.85
2017-12-25T05:10:18.520Z,14.05
2017-12-25T05:12:46.602Z,14.65
2017-12-25T05:15:13.592Z,13.90
2017-12-25T05:17:39.832Z,15.25
2017-12-25T05:20:06.078Z,15.43
2017-12-25T05:22:32.349Z,15.35
2017-12-25T05:24:58.627Z,15.13
2017-12-25T05:27:24.854Z,16.33
2017-12-25T05:29:51.468Z,13.30
2017-12-25T05:32:17.719Z,14.45
2017-12-25T05:34:43.975Z,15.55
2017-12-25T05:37:10.218Z,14.87
2017-12-25T05:39:36.720Z,15.32
2017-12-25T05:42:03.039Z,16.87
2017-12-25T05:44:30.014Z,15.02
2017-12-25T05:46:56.271Z,14.60
2017-12-25T05:49:23.244Z,16.23
2017-12-25T05:51:49.489Z,15.18
2017-12-25T05:54:15.736Z,14.32
2017-12-25T05:56:41.997Z,16.67
2017-12-25T05:59:08.232Z,14.52
2017-12-25T06:01:34.489Z,15.00
2017-12-25T06:04:01.515Z,13.60
2017-12-25T06:06:28.036Z,18.20
2017-12-25T06:08:54.273Z,14.50
2017-12-25T06:11:20.526Z,15.23
2017-12-25T06:13:46.789Z,15.65
2017-12-25T06:16:13.046Z,13.82
2017-12-25T06:18:39.307Z,14.23
2017-12-25T06:21:06.293Z,12.60
2017-12-25T06:23:32.516Z,16.60
2017-12-25T06:25:59.504Z,21.15
2017-12-25T06:28:25.757Z,18.42
2017-12-25T06:30:51.992Z,19.77
2017-12-25T06:33:18.527Z,13.27
2017-12-25T06:35:44.767Z,16.12
2017-12-25T06:38:11.039Z,11.10
2017-12-25T06:40:37.311Z,11.20
2017-12-25T06:43:04.279Z,10.80
2017-12-25T06:45:31.277Z,12.07
2017-12-25T06:47:57.512Z,11.57
2017-12-25T06:50:23.774Z,10.35
2017-12-25T06:52:50.045Z,10.02
2017-12-25T06:55:17.033Z,11.65
2017-12-25T06:57:43.316Z,9.52
2017-12-25T07:00:09.594Z,10.70
2017-12-25T07:02:35.856Z,12.15
2017-12-25T07:05:02.395Z,10.40
2017-12-25T07:07:28.654Z,11.57
2017-12-25T07:09:54.939Z,10.25
2017-12-25T07:12:21.208Z,11.50
2017-12-25T07:14:48.198Z,14.05
2017-12-25T07:17:14.466Z,12.65
2017-12-25T07:19:40.697Z,15.40
2017-12-25T07:22:06.977Z,14.27
2017-12-25T07:24:33.248Z,13.68
2017-12-25T07:26:59.507Z,13.43
2017-12-25T07:29:26.494Z,13.50
2017-12-25T07:31:52.726Z,14.00
2017-12-25T07:34:19.729Z,13.70
2017-12-25T07:36:46.775Z,14.63
2017-12-25T07:39:13.800Z,12.98
2017-12-25T07:41:40.089Z,15.00
2017-12-25T07:44:07.099Z,12.57
2017-12-25T07:46:33.429Z,13.02
2017-12-25T07:48:59.686Z,14.02
2017-12-25T07:51:25.928Z,14.75
2017-12-25T07:53:52.211Z,16.27
2017-12-25T07:56:19.223Z,19.37
2017-12-25T07:58:45.532Z,16.58
2017-12-25T08:01:11.815Z,16.83
2017-12-25T08:03:38.067Z,15.10
2017-12-25T08:06:04.355Z,15.07
2017-12-25T08:08:30.600Z,13.88
2017-12-25T08:10:56.861Z,16.80
2017-12-25T08:13:23.090Z,15.90
2017-12-25T08:15:49.365Z,13.77
2017-12-25T08:18:15.625Z,14.07
2017-12-25T08:20:42.158Z,15.05
2017-12-25T08:23:08.411Z,13.70
2017-12-25T08:25:34.647Z,16.60
2017-12-25T08:28:00.897Z,14.98
2017-12-25T08:30:27.143Z,13.93
2017-12-25T08:32:53.387Z,16.25
2017-12-25T08:35:20.405Z,14.45
2017-12-25T08:37:46.656Z,14.35
2017-12-25T08:40:12.962Z,16.17
2017-12-25T08:42:39.283Z,14.63
2017-12-25T08:45:06.259Z,15.70
2017-12-25T08:47:32.876Z,15.40
2017-12-25T08:49:59.156Z,15.20
2017-12-25T08:52:25.458Z,15.65
2017-12-25T08:54:51.735Z,14.87
2017-12-25T08:57:18.015Z,16.62
2017-12-25T08:59:44.298Z,14.43
2017-12-25T09:02:11.310Z,15.40
2017-12-25T09:04:37.594Z,14.65
2017-12-25T09:07:04.613Z,15.00
2017-12-25T09:09:30.912Z,14.73
2017-12-25T09:11:57.182Z,15.75
2017-12-25T09:14:23.529Z,14.57
2017-12-25T09:16:49.812Z,15.82
2017-12-25T09:19:16.832Z,15.20
2017-12-25T09:21:43.109Z,15.55
2017-12-25T09:24:09.394Z,16.42
2017-12-25T09:26:35.669Z,16.17
2017-12-25T09:29:01.936Z,18.90
2017-12-25T09:31:28.214Z,18.50
2017-12-25T09:33:54.480Z,16.80
2017-12-25T09:36:21.017Z,15.77
2017-12-25T09:38:47.328Z,14.57
2017-12-25T09:41:15.408Z,11.95
2017-12-25T09:43:42.398Z,11.93
2017-12-25T09:46:08.678Z,11.20
2017-12-25T09:48:35.025Z,10.48
2017-12-25T09:51:01.287Z,11.95
2017-12-25T09:53:28.684Z,13.65
2017-12-25T09:55:58.113Z,12.88
2017-12-25T09:58:25.364Z,12.00
2017-12-25T10:00:51.641Z,13.52
2017-12-25T10:03:17.931Z,12.20
2017-12-25T10:05:46.304Z,13.50
2017-12-25T10:08:13.233Z,11.65
2017-12-25T10:10:40.390Z,14.98
2017-12-25T10:13:06.687Z,14.60
2017-12-25T10:15:32.952Z,14.45
2017-12-25T10:18:00.013Z,16.00
2017-12-25T10:20:26.316Z,18.02
2017-12-25T10:22:53.325Z,16.05
2017-12-25T10:25:19.594Z,16.05
2017-12-25T10:27:45.817Z,14.32
2017-12-25T10:30:12.081Z,15.52
2017-12-25T10:32:38.350Z,14.55
2017-12-25T10:35:04.589Z,15.45
2017-12-25T10:37:30.880Z,18.33
2017-12-25T10:39:57.185Z,18.92
2017-12-25T10:42:23.470Z,18.40
2017-12-25T10:44:49.730Z,16.95
2017-12-25T10:47:16.847Z,18.83
2017-12-25T10:49:43.262Z,15.93
2017-12-25T10:52:10.322Z,14.43
2017-12-25T10:54:36.620Z,14.20
2017-12-25T10:57:02.915Z,16.15
2017-12-25T10:59:29.225Z,14.52
2017-12-25T11:01:56.287Z,13.45
2017-12-25T11:04:23.283Z,13.32
2017-12-25T11:06:49.581Z,12.55
2017-12-25T11:09:15.865Z,15.63
2017-12-25T11:11:42.117Z,14.90
2017-12-25T11:14:08.404Z,18.10
2017-12-25T11:16:34.653Z,16.80
2017-12-25T11:19:01.680Z,15.73
2017-12-25T11:21:27.916Z,14.95
2017-12-25T11:23:54.170Z,14.70
2017-12-25T11:26:20.590Z,15.68
2017-12-25T11:28:46.852Z,15.20
2017-12-25T11:31:13.145Z,12.02
2017-12-25T11:33:39.384Z,14.35
2017-12-25T11:36:06.394Z,10.82
2017-12-25T11:38:32.638Z,18.87
2017-12-25T11:40:58.898Z,14.75
2017-12-25T11:43:25.150Z,14.38
2017-12-25T11:45:52.178Z,11.75
2017-12-25T11:48:18.408Z,10.63
2017-12-25T11:50:44.680Z,10.73
2017-12-25T11:53:10.950Z,10.73
2017-12-25T11:55:37.232Z,10.90
2017-12-25T11:58:03.484Z,10.98
2017-12-25T12:00:29.780Z,8.75
2017-12-25T12:02:56.064Z,10.90
2017-12-25T12:05:22.291Z,10.68
2017-12-25T12:07:48.539Z,10.52
2017-12-25T12:10:14.857Z,9.50
2017-12-25T12:12:41.115Z,9.68
2017-12-25T12:15:07.640Z,10.73
2017-12-25T12:17:33.964Z,10.02
2017-12-25T12:20:00.245Z,9.82
2017-12-25T12:22:26.521Z,10.30
2017-12-25T12:24:52.759Z,10.75
2017-12-25T12:27:18.995Z,10.13
2017-12-25T12:29:45.262Z,10.93
2017-12-25T12:32:12.353Z,10.50
2017-12-25T12:34:38.630Z,8.15
2017-12-25T12:37:04.942Z,8.68
2017-12-25T12:39:31.214Z,10.30
2017-12-25T12:41:57.486Z,10.68
2017-12-25T12:44:24.468Z,11.85
2017-12-25T12:46:50.756Z,11.65
2017-12-25T12:49:17.038Z,12.98
2017-12-25T12:51:44.059Z,11.90
2017-12-25T12:54:10.354Z,10.77
2017-12-25T12:56:36.616Z,11.20
2017-12-25T12:59:02.881Z,12.30
2017-12-25T13:01:29.274Z,12.95
2017-12-25T13:03:55.572Z,11.93
2017-12-25T13:06:21.821Z,10.52
2017-12-25T13:08:48.098Z,12.70
2017-12-25T13:11:14.387Z,12.32
2017-12-25T13:13:40.667Z,12.10
2017-12-25T13:16:07.690Z,10.68
2017-12-25T13:18:33.919Z,10.10
2017-12-25T13:21:00.205Z,9.80
2017-12-25T13:23:27.241Z,9.55
2017-12-25T13:25:53.517Z,11.23
2017-12-25T13:28:19.777Z,11.18
2017-12-25T13:30:46.323Z,9.82
2017-12-25T13:33:12.584Z,9.45
2017-12-25T13:35:38.835Z,9.23
2017-12-25T13:38:05.095Z,9.32
2017-12-25T13:40:31.384Z,9.02
2017-12-25T13:42:57.729Z,10.23
2017-12-25T13:45:24.029Z,9.18
2017-12-25T13:47:50.305Z,9.93
2017-12-25T13:50:16.552Z,9.85
2017-12-25T13:52:42.842Z,10.55
2017-12-25T13:55:09.122Z,11.63
2017-12-25T13:57:36.138Z,10.23
2017-12-25T14:00:02.425Z,8.98
2017-12-25T14:02:29.570Z,9.00
2017-12-25T14:04:56.582Z,9.93
2017-12-25T14:07:23.576Z,9.48
2017-12-25T14:09:51.657Z,9.27
2017-12-25T14:12:18.005Z,9.80
2017-12-25T14:14:44.347Z,9.00
2017-12-25T14:17:11.354Z,10.00
2017-12-25T14:19:37.679Z,9.55
2017-12-25T14:22:03.935Z,10.30
2017-12-25T14:24:30.919Z,10.73
2017-12-25T14:26:57.194Z,10.13
2017-12-25T14:29:24.199Z,10.27
2017-12-25T14:31:50.466Z,9.35
2017-12-25T14:34:16.703Z,9.52
2017-12-25T14:36:42.976Z,10.13
2017-12-25T14:39:09.992Z,10.63
2017-12-25T14:41:36.277Z,10.52
2017-12-25T14:44:03.368Z,10.23
2017-12-25T14:46:29.616Z,10.70
2017-12-25T14:48:55.868Z,11.52
2017-12-25T14:51:22.149Z,11.70
2017-12-25T14:53:48.451Z,13.45
2017-12-25T14:56:14.720Z,11.55
2017-12-25T14:58:40.978Z,10.15
2017-12-25T15:01:07.250Z,10.70
2017-12-25T15:03:33.568Z,11.63
2017-12-25T15:05:59.818Z,10.88
2017-12-25T15:08:26.832Z,12.35
2017-12-25T15:10:53.114Z,12.68
2017-12-25T15:13:20.156Z,10.90
2017-12-25T15:15:46.402Z,12.02
2017-12-25T15:18:12.690Z,12.02
2017-12-25T15:20:38.959Z,10.90
2017-12-25T15:23:05.568Z,11.70
2017-12-25T15:25:31.849Z,11.32
2017-12-25T15:27:58.117Z,10.65
2017-12-25T15:30:25.136Z,10.60
2017-12-25T15:32:51.396Z,8.85
2017-12-25T15:35:17.670Z,12.43
2017-12-25T15:37:44.681Z,9.93
2017-12-25T15:40:10.955Z,10.90
2017-12-25T15:42:37.315Z,10.52
2017-12-25T15:45:04.365Z,11.00
2017-12-25T15:47:31.397Z,10.38
2017-12-25T15:49:57.687Z,10.68
2017-12-25T15:52:24.042Z,9.35
2017-12-25T15:54:50.293Z,10.45
2017-12-25T15:57:16.580Z,11.30
2017-12-25T15:59:42.850Z,10.05
2017-12-25T16:02:09.870Z,9.90
2017-12-25T16:04:36.162Z,10.50
2017-12-25T16:07:02.436Z,9.63
2017-12-25T16:09:28.704Z,10.00
2017-12-25T16:11:55.026Z,9.10
2017-12-25T16:14:21.272Z,9.07
2017-12-25T16:16:47.564Z,11.68
2017-12-25T16:19:13.879Z,11.07
2017-12-25T16:21:40.230Z,9.07
2017-12-25T16:24:07.248Z,10.93
2017-12-25T16:26:33.534Z,11.38
2017-12-25T16:28:59.907Z,10.52
2017-12-25T16:31:26.140Z,10.13
2017-12-25T16:33:52.405Z,12.70
2017-12-25T16:36:18.691Z,11.82
2017-12-25T16:38:44.949Z,11.93
2017-12-25T16:41:12.156Z,15.75
2017-12-25T16:43:38.492Z,14.93
2017-12-25T16:46:04.771Z,18.75
2017-12-25T16:48:31.070Z,13.38
2017-12-25T16:50:57.437Z,12.55
2017-12-25T16:53:23.742Z,12.50
2017-12-25T16:55:50.039Z,14.40
2017-12-25T16:58:16.324Z,13.02
2017-12-25T17:00:42.601Z,14.43
2017-12-25T17:03:09.472Z,14.13
2017-12-25T17:05:35.853Z,13.50
2017-12-25T17:08:02.171Z,16.33
2017-12-25T17:10:28.649Z,14.35
2017-12-25T17:12:54.941Z,14.15
2017-12-25T17:15:21.586Z,15.27
2017-12-25T17:17:50.076Z,14.25
2017-12-25T17:20:17.716Z,13.32
2017-12-25T17:22:45.957Z,15.95
2017-12-25T17:25:12.612Z,14.90
2017-12-25T17:27:39.200Z,13.00
2017-12-25T17:30:05.938Z,13.32
2017-12-25T17:32:32.694Z,11.90
2017-12-25T17:34:59.965Z,15.13
2017-12-25T17:37:27.293Z,16.12
2017-12-25T17:39:54.020Z,15.55
2017-12-25T17:42:22.029Z,15.98
2017-12-25T17:44:50.526Z,17.90
2017-12-25T17:47:17.416Z,15.48
2017-12-25T17:49:44.819Z,15.85
2017-12-25T17:52:13.497Z,15.27
2017-12-25T17:54:40.196Z,14.20
2017-12-25T17:57:06.976Z,19.02
2017-12-25T17:59:33.749Z,40.88
2017-12-25T18:02:08.559Z,20.37
2017-12-25T18:04:35.114Z,13.95
2017-12-25T18:07:02.666Z,13.50
2017-12-25T18:09:29.478Z,15.20
2017-12-25T18:11:56.873Z,14.82
2017-12-25T18:14:24.151Z,17.05
2017-12-25T18:16:50.582Z,15.93
2017-12-25T18:19:18.923Z,15.20
2017-12-25T18:21:47.270Z,16.67
2017-12-25T18:24:17.484Z,16.05
2017-12-25T18:26:44.807Z,13.45
2017-12-25T18:29:11.502Z,15.48
2017-12-25T18:31:42.618Z,16.48
2017-12-25T18:34:09.228Z,13.70
2017-12-25T18:36:36.173Z,15.45
2017-12-25T18:39:03.973Z,14.90
2017-12-25T18:41:31.540Z,15.73
2017-12-25T18:43:59.728Z,14.63
2017-12-25T18:46:26.991Z,13.80
2017-12-25T18:48:56.782Z,13.30
2017-12-25T18:51:23.534Z,13.52
2017-12-25T18:53:50.399Z,15.90
2017-12-25T18:56:18.659Z,14.55
2017-12-25T18:58:45.630Z,13.38
2017-12-25T19:01:13.507Z,15.80
2017-12-25T19:03:40.496Z,14.38
2017-12-25T19:06:07.791Z,15.15
2017-12-25T19:08:34.553Z,13.60
2017-12-25T19:11:02.976Z,14.40
2017-12-25T19:13:29.315Z,12.95
2017-12-25T19:15:56.394Z,14.27
2017-12-25T19:18:22.728Z,15.20
2017-12-25T19:20:49.097Z,14.13
2017-12-25T19:23:15.392Z,15.07
2017-12-25T19:25:42.423Z,13.05
2017-12-25T19:28:08.740Z,14.13
2017-12-25T19:30:35.587Z,14.15
2017-12-25T19:33:01.902Z,13.62
2017-12-25T19:35:29.005Z,13.50
2017-12-25T19:37:55.319Z,14.63
2017-12-25T19:40:21.859Z,13.50
2017-12-25T19:42:48.198Z,14.55
2017-12-25T19:45:14.575Z,14.23
2017-12-25T19:47:40.877Z,14.73
2017-12-25T19:50:07.424Z,13.40
2017-12-25T19:52:33.794Z,13.18
2017-12-25T19:55:00.096Z,15.25
2017-12-25T19:57:27.130Z,27.40
2017-12-25T19:59:53.512Z,27.15
2017-12-25T20:02:23.185Z,28.83
2017-12-25T20:04:49.986Z,16.30
2017-12-25T20:07:16.418Z,42.55
2017-12-25T20:09:42.770Z,18.08
2017-12-25T20:12:10.006Z,16.45
2017-12-25T20:14:36.350Z,17.33
2017-12-25T20:17:02.854Z,15.50
2017-12-25T20:19:29.190Z,15.45
2017-12-25T20:21:55.560Z,15.50
2017-12-25T20:24:21.904Z,15.63
2017-12-25T20:26:48.255Z,15.30
2017-12-25T20:29:14.901Z,13.88
2017-12-25T20:31:41.311Z,14.10
2017-12-25T20:34:07.622Z,14.38
2017-12-25T20:36:33.960Z,13.93
2017-12-25T20:39:00.329Z,13.68
2017-12-25T20:41:26.714Z,14.60
2017-12-25T20:43:53.098Z,13.40
2017-12-25T20:46:19.515Z,13.57
2017-12-25T20:48:45.875Z,14.87
2017-12-25T20:51:12.502Z,16.67
2017-12-25T20:53:39.613Z,14.43
2017-12-25T20:56:06.734Z,15.25
2017-12-25T20:58:33.101Z,16.20
2017-12-25T21:00:59.760Z,15.25
2017-12-25T21:03:26.143Z,18.25
2017-12-25T21:05:53.883Z,16.92
2017-12-25T21:08:20.987Z,16.55
2017-12-25T21:10:47.324Z,16.50
2017-12-25T21:13:14.403Z,18.12
2017-12-25T21:15:40.916Z,16.40
2017-12-25T21:18:08.029Z,17.20
2017-12-25T21:20:35.285Z,14.77
2017-12-25T21:23:01.833Z,14.73
2017-12-25T21:25:28.170Z,16.50
2017-12-25T21:27:54.478Z,15.82
2017-12-25T21:30:20.852Z,17.80
2017-12-25T21:32:47.211Z,19.98
2017-12-25T21:35:13.550Z,18.67
2017-12-25T21:37:39.904Z,18.87
2017-12-25T21:40:06.286Z,20.75
2017-12-25T21:42:32.615Z,19.85
2017-12-25T21:44:59.836Z,20.08
2017-12-25T21:47:26.144Z,17.37
2017-12-25T21:49:52.494Z,14.82
2017-12-25T21:52:18.862Z,15.27
2017-12-25T21:54:45.233Z,13.95
2017-12-25T21:57:11.564Z,14.13
2017-12-25T21:59:37.911Z,14.80
2017-12-25T22:02:04.227Z,17.45
2017-12-25T22:04:30.573Z,13.70
2017-12-25T22:06:56.908Z,15.10
2017-12-25T22:09:23.220Z,14.68
2017-12-25T22:11:49.538Z,14.23
2017-12-25T22:14:15.910Z,14.07
2017-12-25T22:16:42.378Z,13.68
2017-12-25T22:19:08.744Z,14.40
2017-12-25T22:21:35.032Z,13.82
2017-12-25T22:24:02.023Z,15.65
2017-12-25T22:26:28.459Z,14.15
2017-12-25T22:28:54.766Z,14.27
2017-12-25T22:31:21.074Z,15.13
2017-12-25T22:33:47.492Z,12.95
2017-12-25T22:36:14.238Z,16.45
2017-12-25T22:38:40.544Z,13.13
2017-12-25T22:41:07.567Z,18.08
2017-12-25T22:43:33.850Z,15.68
2017-12-25T22:46:00.323Z,19.77
2017-12-25T22:48:26.634Z,15.82
2017-12-25T22:50:52.971Z,16.42
2017-12-25T22:53:20.020Z,15.70
2017-12-25T22:55:46.365Z,13.88
2017-12-25T22:58:12.709Z,18.00
2017-12-25T23:00:38.998Z,13.70
2017-12-25T23:03:05.281Z,12.73
2017-12-25T23:05:31.532Z,15.45
2017-12-25T23:07:58.205Z,17.62
2017-12-25T23:10:25.233Z,15.68
2017-12-25T23:12:51.491Z,14.13
2017-12-25T23:15:17.760Z,13.50
2017-12-25T23:17:44.786Z,15.93
2017-12-25T23:20:11.095Z,14.77
2017-12-25T23:22:37.504Z,14.30
2017-12-25T23:25:04.529Z,15.55
2017-12-25T23:27:30.781Z,14.70
2017-12-25T23:29:57.075Z,14.73
2017-12-25T23:32:23.357Z,14.45
2017-12-25T23:34:49.641Z,16.55
2017-12-25T23:37:15.925Z,14.98
2017-12-25T23:39:42.222Z,14.65
2017-12-25T23:42:08.502Z,14.43
2017-12-25T23:44:34.775Z,14.55
2017-12-25T23:47:01.793Z,14.38
2017-12-25T23:49:28.067Z,15.50
2017-12-25T23:51:54.776Z,17.58
2017-12-25T23:54:21.827Z,15.77
2017-12-25T23:56:48.120Z,15.45
2017-12-25T23:59:14.372Z,14.52
